SAS2485 ENBR-EKBI
Flight info
| Callsign | SAS2485 |
|---|---|
| Flight time | N/A |
| Altitude | 33000 |
| Route | TUXIL DCT ZOL DCT GELBA |
| Aircraft | B738/M-SDFGHIRWXYZ/LB1 |
Departure
| Time | 2026-05-07 16:29 |
|---|---|
| Airport | Bergen Airport, Flesland (ENBR) |
Arrival
| Time | N/A |
|---|---|
| Airport | Billund Airport (EKBI) |
| Time | Latitude | Longitude | Altitude | Speed | Heading |
|---|---|---|---|---|---|
| 2026-05-07 16:14 | 60.28891 | 5.22532 | 160 ft | 0 kts | 102° |
| 2026-05-07 16:22 | 60.28891 | 5.22531 | 160 ft | 0 kts | 102° |
| 2026-05-07 16:23 | 60.28893 | 5.22518 | 160 ft | 3 kts | 77° |
| 2026-05-07 16:23 | 60.28892 | 5.22490 | 160 ft | 3 kts | 91° |
| 2026-05-07 16:23 | 60.28890 | 5.22453 | 160 ft | 3 kts | 66° |
| 2026-05-07 16:23 | 60.28880 | 5.22426 | 160 ft | 3 kts | 21° |
| 2026-05-07 16:24 | 60.28863 | 5.22420 | 160 ft | 2 kts | 351° |
| 2026-05-07 16:24 | 60.28858 | 5.22422 | 160 ft | 1 kts | 349° |
| 2026-05-07 16:27 | 60.28870 | 5.22418 | 160 ft | 7 kts | 349° |
| 2026-05-07 16:27 | 60.28990 | 5.22373 | 161 ft | 28 kts | 349° |
| 2026-05-07 16:27 | 60.29185 | 5.22187 | 163 ft | 31 kts | 339° |
| 2026-05-07 16:27 | 60.29389 | 5.22120 | 165 ft | 29 kts | 355° |
| 2026-05-07 16:28 | 60.29579 | 5.22046 | 167 ft | 27 kts | 351° |
| 2026-05-07 16:28 | 60.29726 | 5.21958 | 168 ft | 14 kts | 295° |
| 2026-05-07 16:28 | 60.29714 | 5.21777 | 168 ft | 13 kts | 252° |
| 2026-05-07 16:28 | 60.29638 | 5.21733 | 167 ft | 13 kts | 168° |
| 2026-05-07 16:29 | 60.29324 | 5.21836 | 164 ft | 94 kts | 171° |
| 2026-05-07 16:29 | 60.28387 | 5.22162 | 278 ft | 166 kts | 170° |
| 2026-05-07 16:29 | 60.27258 | 5.22470 | 1152 ft | 181 kts | 176° |
| 2026-05-07 16:29 | 60.26038 | 5.23011 | 1821 ft | 211 kts | 165° |
| 2026-05-07 16:30 | 60.24615 | 5.23620 | 2533 ft | 214 kts | 172° |
| 2026-05-07 16:30 | 60.23308 | 5.24002 | 3174 ft | 217 kts | 172° |
| 2026-05-07 16:30 | 60.21790 | 5.24436 | 3877 ft | 225 kts | 172° |
| 2026-05-07 16:30 | 60.20217 | 5.24903 | 4631 ft | 232 kts | 172° |
| 2026-05-07 16:31 | 60.18600 | 5.25403 | 5368 ft | 237 kts | 171° |
| 2026-05-07 16:31 | 60.16951 | 5.25933 | 6109 ft | 242 kts | 171° |
| 2026-05-07 16:31 | 60.15330 | 5.26467 | 6821 ft | 245 kts | 171° |
| 2026-05-07 16:31 | 60.13563 | 5.27062 | 7422 ft | 259 kts | 171° |
| 2026-05-07 16:32 | 60.11752 | 5.27673 | 8084 ft | 269 kts | 171° |
| 2026-05-07 16:32 | 60.09882 | 5.28305 | 8915 ft | 273 kts | 171° |
| 2026-05-07 16:32 | 60.07997 | 5.28890 | 9803 ft | 275 kts | 172° |
| 2026-05-07 16:32 | 60.06087 | 5.29406 | 10551 ft | 283 kts | 174° |
| 2026-05-07 16:33 | 60.04049 | 5.29937 | 10790 ft | 309 kts | 174° |
| 2026-05-07 16:33 | 60.01858 | 5.30505 | 10993 ft | 333 kts | 174° |
| 2026-05-07 16:33 | 59.99514 | 5.31119 | 11354 ft | 350 kts | 174° |
| 2026-05-07 16:33 | 59.97068 | 5.31769 | 12069 ft | 355 kts | 174° |
| 2026-05-07 16:34 | 59.94612 | 5.32424 | 12865 ft | 358 kts | 175° |
| 2026-05-07 16:34 | 59.92125 | 5.33087 | 13607 ft | 362 kts | 175° |
| 2026-05-07 16:34 | 59.89607 | 5.33758 | 14303 ft | 367 kts | 175° |
| 2026-05-07 16:34 | 59.87060 | 5.34436 | 15005 ft | 372 kts | 175° |
| 2026-05-07 16:35 | 59.84482 | 5.35120 | 15690 ft | 376 kts | 176° |
| 2026-05-07 16:35 | 59.81873 | 5.35810 | 16351 ft | 380 kts | 176° |
| 2026-05-07 16:35 | 59.79244 | 5.36492 | 16991 ft | 384 kts | 177° |
| 2026-05-07 16:35 | 59.76572 | 5.36994 | 17599 ft | 387 kts | 180° |
| 2026-05-07 16:36 | 59.74006 | 5.37373 | 18163 ft | 391 kts | 180° |
| 2026-05-07 16:36 | 59.71870 | 5.37681 | 18634 ft | 394 kts | 180° |
| 2026-05-07 16:36 | 59.71426 | 5.37747 | 18731 ft | 394 kts | 180° |
| 2026-05-07 16:36 | 59.69120 | 5.38103 | 19210 ft | 398 kts | 180° |
| 2026-05-07 16:37 | 59.66295 | 5.38559 | 19745 ft | 402 kts | 180° |
| 2026-05-07 16:37 | 59.63696 | 5.39008 | 20245 ft | 407 kts | 179° |
| 2026-05-07 16:37 | 59.61191 | 5.39587 | 20709 ft | 411 kts | 177° |
| 2026-05-07 16:37 | 59.58521 | 5.40299 | 21668 ft | 400 kts | 177° |
| 2026-05-07 16:38 | 59.55800 | 5.41045 | 22707 ft | 389 kts | 178° |
| 2026-05-07 16:38 | 59.53217 | 5.41739 | 23733 ft | 377 kts | 179° |